sensor_id;sensor_type;location;lat;lon;timestamp;pressure;altitude;pressure_sealevel;temperature;humidity
11808;BME280;5961;42.640;23.380;2023-05-29T00:00:26;93842.88;;;17.27;88.19
11808;BME280;5961;42.640;23.380;2023-05-29T00:02:54;93849.41;;;17.29;88.17
11808;BME280;5961;42.640;23.380;2023-05-29T00:05:21;93857.44;;;17.26;88.67
11808;BME280;5961;42.640;23.380;2023-05-29T00:07:47;93849.78;;;17.24;88.66
11808;BME280;5961;42.640;23.380;2023-05-29T00:10:16;93777.88;;;16.79;88.92
11808;BME280;5961;42.640;23.380;2023-05-29T00:12:44;93840.59;;;17.25;88.33
11808;BME280;5961;42.640;23.380;2023-05-29T00:15:10;93859.72;;;17.17;88.76
11808;BME280;5961;42.640;23.380;2023-05-29T00:17:38;93847.47;;;17.16;88.28
11808;BME280;5961;42.640;23.380;2023-05-29T00:20:05;93838.56;;;17.05;88.46
11808;BME280;5961;42.640;23.380;2023-05-29T00:22:34;93852.78;;;17.09;88.71
11808;BME280;5961;42.640;23.380;2023-05-29T00:25:03;93847.78;;;17.04;88.54
11808;BME280;5961;42.640;23.380;2023-05-29T00:27:30;93854.66;;;17.05;88.56
11808;BME280;5961;42.640;23.380;2023-05-29T00:29:59;93851.59;;;16.99;88.28
11808;BME280;5961;42.640;23.380;2023-05-29T00:32:26;93846.16;;;16.85;88.60
11808;BME280;5961;42.640;23.380;2023-05-29T00:34:53;93841.97;;;16.91;88.53
11808;BME280;5961;42.640;23.380;2023-05-29T00:37:20;93798.78;;;16.52;89.02
11808;BME280;5961;42.640;23.380;2023-05-29T00:39:47;93848.06;;;16.84;89.24
11808;BME280;5961;42.640;23.380;2023-05-29T00:42:13;93855.34;;;16.84;89.65
11808;BME280;5961;42.640;23.380;2023-05-29T00:44:40;93847.31;;;16.87;89.77
11808;BME280;5961;42.640;23.380;2023-05-29T00:47:08;93841.16;;;16.83;90.02
11808;BME280;5961;42.640;23.380;2023-05-29T00:49:37;93821.88;;;16.64;90.09
11808;BME280;5961;42.640;23.380;2023-05-29T00:52:05;93844.16;;;16.68;91.00
11808;BME280;5961;42.640;23.380;2023-05-29T00:54:33;93832.19;;;16.55;91.92
11808;BME280;5961;42.640;23.380;2023-05-29T00:57:02;93827.53;;;16.52;92.47
11808;BME280;5961;42.640;23.380;2023-05-29T00:59:32;93792.09;;;16.21;93.08
11808;BME280;5961;42.640;23.380;2023-05-29T01:01:59;93827.06;;;16.39;93.41
11808;BME280;5961;42.640;23.380;2023-05-29T01:04:29;93830.88;;;16.34;94.06
11808;BME280;5961;42.640;23.380;2023-05-29T01:06:59;93834.69;;;16.33;94.55
11808;BME280;5961;42.640;23.380;2023-05-29T01:09:27;93834.72;;;16.37;94.46
11808;BME280;5961;42.640;23.380;2023-05-29T01:12:06;93836.22;;;16.38;94.49
11808;BME280;5961;42.640;23.380;2023-05-29T01:14:44;93835.47;;;16.34;95.01
11808;BME280;5961;42.640;23.380;2023-05-29T01:17:17;93830.09;;;16.34;95.15
11808;BME280;5961;42.640;23.380;2023-05-29T01:20:03;93824.72;;;16.34;95.29
11808;BME280;5961;42.640;23.380;2023-05-29T01:22:46;93830.94;;;16.45;94.74
11808;BME280;5961;42.640;23.380;2023-05-29T01:25:21;93835.16;;;16.46;94.40
11808;BME280;5961;42.640;23.380;2023-05-29T01:27:52;93832.91;;;16.52;92.99
11808;BME280;5961;42.640;23.380;2023-05-29T01:30:22;93839.00;;;16.48;92.12
11808;BME280;5961;42.640;23.380;2023-05-29T01:32:51;93833.63;;;16.48;92.50
11808;BME280;5961;42.640;23.380;2023-05-29T01:35:18;93838.97;;;16.45;92.06
11808;BME280;5961;42.640;23.380;2023-05-29T01:37:44;93829.41;;;16.47;92.10
11808;BME280;5961;42.640;23.380;2023-05-29T01:40:12;93834.00;;;16.47;92.44
11808;BME280;5961;42.640;23.380;2023-05-29T01:42:39;93825.97;;;16.51;92.37
11808;BME280;5961;42.640;23.380;2023-05-29T01:45:08;93727.47;;;15.82;92.67
11808;BME280;5961;42.640;23.380;2023-05-29T01:47:35;93834.03;;;16.51;93.11
11808;BME280;5961;42.640;23.380;2023-05-29T01:50:03;93818.66;;;16.44;93.58
11808;BME280;5961;42.640;23.380;2023-05-29T01:52:30;93835.47;;;16.34;93.99
11808;BME280;5961;42.640;23.380;2023-05-29T01:54:57;93834.31;;;16.38;94.35
11808;BME280;5961;42.640;23.380;2023-05-29T01:57:24;93830.41;;;16.25;94.68
11808;BME280;5961;42.640;23.380;2023-05-29T01:59:52;93832.66;;;16.20;95.26
11808;BME280;5961;42.640;23.380;2023-05-29T02:02:21;93770.69;;;15.81;95.86
11808;BME280;5961;42.640;23.380;2023-05-29T02:04:48;93833.41;;;16.13;96.46
11808;BME280;5961;42.640;23.380;2023-05-29T02:07:14;93839.13;;;16.12;96.83
11808;BME280;5961;42.640;23.380;2023-05-29T02:09:41;93798.72;;;15.90;97.04
11808;BME280;5961;42.640;23.380;2023-05-29T02:12:08;93822.97;;;16.05;97.48
11808;BME280;5961;42.640;23.380;2023-05-29T02:14:35;93823.69;;;16.02;97.88
11808;BME280;5961;42.640;23.380;2023-05-29T02:17:02;93828.66;;;16.00;98.33
11808;BME280;5961;42.640;23.380;2023-05-29T02:19:31;93828.09;;;15.76;99.38
11808;BME280;5961;42.640;23.380;2023-05-29T02:21:57;93821.94;;;15.72;99.83
11808;BME280;5961;42.640;23.380;2023-05-29T02:24:24;93814.28;;;15.74;99.67
11808;BME280;5961;42.640;23.380;2023-05-29T02:26:51;93811.94;;;15.69;100.00
11808;BME280;5961;42.640;23.380;2023-05-29T02:29:17;93822.75;;;15.76;100.00
11808;BME280;5961;42.640;23.380;2023-05-29T02:31:44;93816.59;;;15.76;99.91
11808;BME280;5961;42.640;23.380;2023-05-29T02:34:10;93820.88;;;15.84;99.87
11808;BME280;5961;42.640;23.380;2023-05-29T02:36:38;93825.84;;;15.82;99.95
11808;BME280;5961;42.640;23.380;2023-05-29T02:39:05;93770.38;;;15.46;100.00
11808;BME280;5961;42.640;23.380;2023-05-29T02:41:32;93845.72;;;15.81;100.00
11808;BME280;5961;42.640;23.380;2023-05-29T02:43:59;93830.50;;;15.88;99.96
11808;BME280;5961;42.640;23.380;2023-05-29T02:46:26;93828.22;;;15.90;99.92
11808;BME280;5961;42.640;23.380;2023-05-29T02:48:52;93825.97;;;15.96;99.66
11808;BME280;5961;42.640;23.380;2023-05-29T02:51:19;93834.81;;;16.00;99.50
11808;BME280;5961;42.640;23.380;2023-05-29T02:53:47;93836.00;;;16.06;98.94
11808;BME280;5961;42.640;23.380;2023-05-29T02:56:14;93830.69;;;16.10;98.82
11808;BME280;5961;42.640;23.380;2023-05-29T02:58:42;93816.47;;;16.06;98.58
11808;BME280;5961;42.640;23.380;2023-05-29T03:01:08;93825.75;;;16.15;98.20
11808;BME280;5961;42.640;23.380;2023-05-29T03:03:36;93799.16;;;15.96;98.31
11808;BME280;5961;42.640;23.380;2023-05-29T03:06:02;93838.03;;;16.20;98.25
11808;BME280;5961;42.640;23.380;2023-05-29T03:08:29;93840.31;;;16.18;98.18
11808;BME280;5961;42.640;23.380;2023-05-29T03:10:57;93845.75;;;16.25;97.99
11808;BME280;5961;42.640;23.380;2023-05-29T03:13:24;93841.56;;;16.31;97.73
11808;BME280;5961;42.640;23.380;2023-05-29T03:15:50;93843.13;;;16.35;97.46
11808;BME280;5961;42.640;23.380;2023-05-29T03:18:21;93835.84;;;16.36;97.20
11808;BME280;5961;42.640;23.380;2023-05-29T03:20:48;93843.09;;;16.32;97.26
11808;BME280;5961;42.640;23.380;2023-05-29T03:23:15;93835.03;;;16.32;97.16
11808;BME280;5961;42.640;23.380;2023-05-29T03:25:41;93827.00;;;16.32;96.91
11808;BME280;5961;42.640;23.380;2023-05-29T03:28:09;93832.47;;;16.46;96.63
11808;BME280;5961;42.640;23.380;2023-05-29T03:30:36;93837.09;;;16.49;96.49
11808;BME280;5961;42.640;23.380;2023-05-29T03:33:03;93825.91;;;16.40;96.47
11808;BME280;5961;42.640;23.380;2023-05-29T03:35:30;93835.50;;;16.41;96.29
11808;BME280;5961;42.640;23.380;2023-05-29T03:37:57;93856.19;;;16.40;96.50
11808;BME280;5961;42.640;23.380;2023-05-29T03:40:23;93859.28;;;16.42;96.58
11808;BME280;5961;42.640;23.380;2023-05-29T03:42:50;93867.72;;;16.48;96.58
11808;BME280;5961;42.640;23.380;2023-05-29T03:45:18;93868.53;;;16.52;96.29
11808;BME280;5961;42.640;23.380;2023-05-29T03:47:45;93867.84;;;16.59;96.50
11808;BME280;5961;42.640;23.380;2023-05-29T03:50:12;93870.16;;;16.60;96.08
11808;BME280;5961;42.640;23.380;2023-05-29T03:52:40;93867.47;;;16.60;96.16
11808;BME280;5961;42.640;23.380;2023-05-29T03:55:09;93866.34;;;16.61;96.09
11808;BME280;5961;42.640;23.380;2023-05-29T03:57:38;93868.66;;;16.66;95.81
11808;BME280;5961;42.640;23.380;2023-05-29T04:00:06;93862.47;;;16.55;96.00
11808;BME280;5961;42.640;23.380;2023-05-29T04:02:36;93859.41;;;16.60;95.58
11808;BME280;5961;42.640;23.380;2023-05-29T04:05:04;93881.72;;;16.71;95.91
11808;BME280;5961;42.640;23.380;2023-05-29T04:07:31;93880.97;;;16.74;95.60
11808;BME280;5961;42.640;23.380;2023-05-29T04:09:58;93887.88;;;16.75;95.64
11808;BME280;5961;42.640;23.380;2023-05-29T04:12:25;93887.13;;;16.78;95.43
11808;BME280;5961;42.640;23.380;2023-05-29T04:14:51;93870.22;;;16.74;94.99
11808;BME280;5961;42.640;23.380;2023-05-29T04:17:18;93881.84;;;16.89;94.99
11808;BME280;5961;42.640;23.380;2023-05-29T04:19:46;93882.59;;;16.89;95.08
11808;BME280;5961;42.640;23.380;2023-05-29T04:22:13;93894.81;;;16.83;95.30
11808;BME280;5961;42.640;23.380;2023-05-29T04:24:40;93888.38;;;16.91;94.72
11808;BME280;5961;42.640;23.380;2023-05-29T04:27:07;93892.25;;;16.97;94.23
11808;BME280;5961;42.640;23.380;2023-05-29T04:29:34;93883.44;;;17.00;94.33
11808;BME280;5961;42.640;23.380;2023-05-29T04:32:01;93885.75;;;17.06;94.32
11808;BME280;5961;42.640;23.380;2023-05-29T04:34:28;93882.69;;;17.11;94.85
11808;BME280;5961;42.640;23.380;2023-05-29T04:36:57;93895.00;;;17.12;95.39
11808;BME280;5961;42.640;23.380;2023-05-29T04:39:24;93903.09;;;17.19;95.62
11808;BME280;5961;42.640;23.380;2023-05-29T04:41:50;93897.75;;;17.26;96.42
11808;BME280;5961;42.640;23.380;2023-05-29T04:44:17;93893.94;;;17.30;97.18
11808;BME280;5961;42.640;23.380;2023-05-29T04:46:44;93900.09;;;17.34;97.56
11808;BME280;5961;42.640;23.380;2023-05-29T04:49:12;93912.00;;;17.37;98.22
11808;BME280;5961;42.640;23.380;2023-05-29T04:51:39;93897.44;;;17.45;97.29
11808;BME280;5961;42.640;23.380;2023-05-29T04:54:07;93897.44;;;17.45;95.86
11808;BME280;5961;42.640;23.380;2023-05-29T04:56:35;93908.22;;;17.52;95.07
11808;BME280;5961;42.640;23.380;2023-05-29T04:59:02;93910.22;;;17.59;94.79
11808;BME280;5961;42.640;23.380;2023-05-29T05:01:29;93908.69;;;17.65;93.23
11808;BME280;5961;42.640;23.380;2023-05-29T05:03:58;93918.28;;;17.69;93.15
11808;BME280;5961;42.640;23.380;2023-05-29T05:06:25;93945.97;;;17.77;92.62
11808;BME280;5961;42.640;23.380;2023-05-29T05:08:52;93924.47;;;17.84;92.25
11808;BME280;5961;42.640;23.380;2023-05-29T05:11:23;93909.88;;;17.81;91.83
11808;BME280;5961;42.640;23.380;2023-05-29T05:13:50;93931.41;;;17.95;92.22
11808;BME280;5961;42.640;23.380;2023-05-29T05:16:16;93935.28;;;18.05;93.74
11808;BME280;5961;42.640;23.380;2023-05-29T05:18:44;93927.59;;;18.10;93.85
11808;BME280;5961;42.640;23.380;2023-05-29T05:21:10;93934.94;;;18.21;93.70
11808;BME280;5961;42.640;23.380;2023-05-29T05:23:37;93935.72;;;18.25;93.17
11808;BME280;5961;42.640;23.380;2023-05-29T05:26:03;93930.34;;;18.25;92.67
11808;BME280;5961;42.640;23.380;2023-05-29T05:28:32;93936.09;;;18.30;92.54
11808;BME280;5961;42.640;23.380;2023-05-29T05:30:59;93931.47;;;18.34;92.21
11808;BME280;5961;42.640;23.380;2023-05-29T05:33:27;93933.03;;;18.39;92.38
11808;BME280;5961;42.640;23.380;2023-05-29T05:35:53;93932.66;;;18.37;92.46
11808;BME280;5961;42.640;23.380;2023-05-29T05:38:20;93925.75;;;18.43;92.06
11808;BME280;5961;42.640;23.380;2023-05-29T05:40:47;93926.13;;;18.45;91.03
11808;BME280;5961;42.640;23.380;2023-05-29T05:43:13;93928.41;;;18.46;90.71
11808;BME280;5961;42.640;23.380;2023-05-29T05:45:42;93942.31;;;18.52;89.41
11808;BME280;5961;42.640;23.380;2023-05-29T05:48:08;93930.38;;;18.49;88.13
11808;BME280;5961;42.640;23.380;2023-05-29T05:50:35;93933.84;;;18.57;87.84
11808;BME280;5961;42.640;23.380;2023-05-29T05:53:02;93931.53;;;18.62;87.56
11808;BME280;5961;42.640;23.380;2023-05-29T05:55:29;93946.13;;;18.65;87.47
11808;BME280;5961;42.640;23.380;2023-05-29T05:57:55;93942.69;;;18.68;87.34
11808;BME280;5961;42.640;23.380;2023-05-29T06:00:22;93949.25;;;18.67;86.25
11808;BME280;5961;42.640;23.380;2023-05-29T06:02:50;93942.31;;;18.66;85.35
11808;BME280;5961;42.640;23.380;2023-05-29T06:05:17;93945.38;;;18.61;86.53
11808;BME280;5961;42.640;23.380;2023-05-29T06:07:44;93935.78;;;18.60;87.57
11808;BME280;5961;42.640;23.380;2023-05-29T06:10:11;93940.75;;;18.51;88.50
11808;BME280;5961;42.640;23.380;2023-05-29T06:12:38;93941.50;;;18.48;89.09
11808;BME280;5961;42.640;23.380;2023-05-29T06:15:06;93935.00;;;18.49;89.44
11808;BME280;5961;42.640;23.380;2023-05-29T06:17:33;93946.94;;;18.55;89.52
11808;BME280;5961;42.640;23.380;2023-05-29T06:20:01;93928.03;;;18.48;89.34
11808;BME280;5961;42.640;23.380;2023-05-29T06:22:29;93947.69;;;18.52;89.75
11808;BME280;5961;42.640;23.380;2023-05-29T06:24:56;93946.16;;;18.54;90.14
11808;BME280;5961;42.640;23.380;2023-05-29T06:27:23;93943.44;;;18.51;89.35
11808;BME280;5961;42.640;23.380;2023-05-29T06:29:51;93949.63;;;18.55;88.27
11808;BME280;5961;42.640;23.380;2023-05-29T06:32:17;93956.16;;;18.57;87.62
11808;BME280;5961;42.640;23.380;2023-05-29T06:34:44;93951.13;;;18.56;87.59
11808;BME280;5961;42.640;23.380;2023-05-29T06:37:12;93953.06;;;18.59;87.74
11808;BME280;5961;42.640;23.380;2023-05-29T06:39:39;93954.59;;;18.60;88.11
11808;BME280;5961;42.640;23.380;2023-05-29T06:42:07;93934.63;;;18.54;87.27
11808;BME280;5961;42.640;23.380;2023-05-29T06:44:34;93953.84;;;18.67;86.74
11808;BME280;5961;42.640;23.380;2023-05-29T06:47:01;93950.75;;;18.72;86.57
11808;BME280;5961;42.640;23.380;2023-05-29T06:49:27;93951.53;;;18.72;86.00
11808;BME280;5961;42.640;23.380;2023-05-29T06:51:54;93943.84;;;18.78;86.64
11808;BME280;5961;42.640;23.380;2023-05-29T06:54:22;93941.53;;;18.80;87.39
11808;BME280;5961;42.640;23.380;2023-05-29T06:56:49;93947.69;;;18.87;86.06
11808;BME280;5961;42.640;23.380;2023-05-29T06:59:16;93949.97;;;18.92;85.97
11808;BME280;5961;42.640;23.380;2023-05-29T07:01:42;93939.19;;;18.99;85.95
11808;BME280;5961;42.640;23.380;2023-05-29T07:04:10;93944.97;;;19.08;86.00
11808;BME280;5961;42.640;23.380;2023-05-29T07:06:37;93953.03;;;19.12;85.39
11808;BME280;5961;42.640;23.380;2023-05-29T07:09:04;93956.09;;;19.17;85.16
11808;BME280;5961;42.640;23.380;2023-05-29T07:11:32;93946.47;;;19.16;84.75
11808;BME280;5961;42.640;23.380;2023-05-29T07:13:58;93951.47;;;19.25;84.38
11808;BME280;5961;42.640;23.380;2023-05-29T07:16:25;93960.31;;;19.22;85.03
11808;BME280;5961;42.640;23.380;2023-05-29T07:18:52;93958.41;;;19.23;84.88
11808;BME280;5961;42.640;23.380;2023-05-29T07:21:18;93961.50;;;19.17;84.35
11808;BME280;5961;42.640;23.380;2023-05-29T07:23:45;93959.56;;;19.14;85.44
11808;BME280;5961;42.640;23.380;2023-05-29T07:26:12;93951.50;;;19.18;84.16
11808;BME280;5961;42.640;23.380;2023-05-29T07:28:40;93955.34;;;19.13;83.90
11808;BME280;5961;42.640;23.380;2023-05-29T07:31:07;93962.63;;;19.24;84.04
11808;BME280;5961;42.640;23.380;2023-05-29T07:33:33;93959.53;;;19.29;83.62
11808;BME280;5961;42.640;23.380;2023-05-29T07:36:00;93961.47;;;19.32;83.56
11808;BME280;5961;42.640;23.380;2023-05-29T07:38:27;93947.59;;;19.37;84.26
11808;BME280;5961;42.640;23.380;2023-05-29T07:40:53;93953.75;;;19.44;83.86
11808;BME280;5961;42.640;23.380;2023-05-29T07:43:20;93958.38;;;19.51;83.64
11808;BME280;5961;42.640;23.380;2023-05-29T07:45:48;93960.66;;;19.56;83.92
11808;BME280;5961;42.640;23.380;2023-05-29T07:48:15;93945.25;;;19.56;83.85
11808;BME280;5961;42.640;23.380;2023-05-29T07:50:42;93951.00;;;19.62;82.78
11808;BME280;5961;42.640;23.380;2023-05-29T07:53:08;93950.63;;;19.67;82.91
11808;BME280;5961;42.640;23.380;2023-05-29T07:55:35;93947.56;;;19.58;83.05
11808;BME280;5961;42.640;23.380;2023-05-29T07:58:02;93945.25;;;19.60;81.59
11808;BME280;5961;42.640;23.380;2023-05-29T08:00:28;93947.56;;;19.58;82.12
11808;BME280;5961;42.640;23.380;2023-05-29T08:02:56;93958.31;;;19.61;82.11
11808;BME280;5961;42.640;23.380;2023-05-29T08:05:23;93953.69;;;19.62;81.68
11808;BME280;5961;42.640;23.380;2023-05-29T08:07:50;93954.09;;;19.64;81.79
11808;BME280;5961;42.640;23.380;2023-05-29T08:10:17;93955.97;;;19.70;82.72
11808;BME280;5961;42.640;23.380;2023-05-29T08:12:43;93945.97;;;19.71;81.15
11808;BME280;5961;42.640;23.380;2023-05-29T08:15:10;93954.81;;;19.75;80.61
11808;BME280;5961;42.640;23.380;2023-05-29T08:17:38;93958.25;;;19.83;80.67
11808;BME280;5961;42.640;23.380;2023-05-29T08:20:07;93962.13;;;19.82;81.14
11808;BME280;5961;42.640;23.380;2023-05-29T08:22:35;93949.00;;;19.80;80.89
11808;BME280;5961;42.640;23.380;2023-05-29T08:25:02;93951.31;;;19.85;81.33
11808;BME280;5961;42.640;23.380;2023-05-29T08:27:29;93902.91;;;19.50;80.37
11808;BME280;5961;42.640;23.380;2023-05-29T08:29:56;93966.66;;;19.95;79.91
11808;BME280;5961;42.640;23.380;2023-05-29T08:32:22;93953.59;;;19.94;79.33
11808;BME280;5961;42.640;23.380;2023-05-29T08:34:51;93963.94;;;20.02;79.21
11808;BME280;5961;42.640;23.380;2023-05-29T08:37:19;93963.91;;;20.09;80.60
11808;BME280;5961;42.640;23.380;2023-05-29T08:39:46;93965.03;;;20.15;79.80
11808;BME280;5961;42.640;23.380;2023-05-29T08:42:13;93950.00;;;20.14;79.79
11808;BME280;5961;42.640;23.380;2023-05-29T08:44:46;93958.03;;;20.29;79.62
11808;BME280;5961;42.640;23.380;2023-05-29T08:47:14;93961.84;;;20.35;79.35
11808;BME280;5961;42.640;23.380;2023-05-29T08:49:51;93947.91;;;20.43;79.31
11808;BME280;5961;42.640;23.380;2023-05-29T08:52:22;93942.88;;;20.49;80.08
11808;BME280;5961;42.640;23.380;2023-05-29T08:54:51;93949.00;;;20.53;77.96
11808;BME280;5961;42.640;23.380;2023-05-29T08:57:19;93945.91;;;20.58;77.69
11808;BME280;5961;42.640;23.380;2023-05-29T08:59:47;93948.59;;;20.58;75.94
11808;BME280;5961;42.640;23.380;2023-05-29T09:02:15;93943.53;;;20.67;76.02
11808;BME280;5961;42.640;23.380;2023-05-29T09:04:42;93929.31;;;20.56;74.28
11808;BME280;5961;42.640;23.380;2023-05-29T09:07:13;93952.34;;;20.71;75.62
11808;BME280;5961;42.640;23.380;2023-05-29T09:09:41;93933.53;;;20.64;74.71
11808;BME280;5961;42.640;23.380;2023-05-29T09:12:08;93941.56;;;20.67;73.82
11808;BME280;5961;42.640;23.380;2023-05-29T09:14:36;93865.13;;;20.22;73.58
11808;BME280;5961;42.640;23.380;2023-05-29T09:17:05;93946.22;;;20.67;73.73
11808;BME280;5961;42.640;23.380;2023-05-29T09:19:33;93928.41;;;20.73;73.35
11808;BME280;5961;42.640;23.380;2023-05-29T09:22:02;93928.34;;;20.80;70.86
11808;BME280;5961;42.640;23.380;2023-05-29T09:24:29;93931.41;;;20.82;70.11
11808;BME280;5961;42.640;23.380;2023-05-29T09:26:59;93914.41;;;20.85;70.08
11808;BME280;5961;42.640;23.380;2023-05-29T09:29:26;93919.44;;;20.83;69.45
11808;BME280;5961;42.640;23.380;2023-05-29T09:31:52;93914.06;;;20.83;69.91
11808;BME280;5961;42.640;23.380;2023-05-29T09:34:19;93906.69;;;20.87;70.11
11808;BME280;5961;42.640;23.380;2023-05-29T09:36:49;93906.25;;;20.92;70.52
11808;BME280;5961;42.640;23.380;2023-05-29T09:39:16;93910.50;;;20.93;70.68
11808;BME280;5961;42.640;23.380;2023-05-29T09:41:44;93907.81;;;20.90;70.46
11808;BME280;5961;42.640;23.380;2023-05-29T09:44:14;93901.28;;;20.87;67.96
11808;BME280;5961;42.640;23.380;2023-05-29T09:46:40;93898.59;;;20.87;68.24
11808;BME280;5961;42.640;23.380;2023-05-29T09:49:10;93902.06;;;20.88;69.05
11808;BME280;5961;42.640;23.380;2023-05-29T09:51:37;93894.34;;;20.86;69.12
11808;BME280;5961;42.640;23.380;2023-05-29T09:54:14;93895.47;;;20.89;69.60
11808;BME280;5961;42.640;23.380;2023-05-29T09:56:42;93900.88;;;20.89;69.40
11808;BME280;5961;42.640;23.380;2023-05-29T09:59:11;93895.06;;;20.94;69.49
11808;BME280;5961;42.640;23.380;2023-05-29T10:01:41;93888.91;;;20.90;69.48
11808;BME280;5961;42.640;23.380;2023-05-29T10:04:09;93894.28;;;20.93;70.22
11808;BME280;5961;42.640;23.380;2023-05-29T10:06:38;93891.09;;;21.02;71.28
11808;BME280;5961;42.640;23.380;2023-05-29T10:09:06;93893.00;;;21.08;71.06
11808;BME280;5961;42.640;23.380;2023-05-29T10:11:35;93888.38;;;21.09;68.43
11808;BME280;5961;42.640;23.380;2023-05-29T10:14:06;93894.47;;;21.16;67.14
11808;BME280;5961;42.640;23.380;2023-05-29T10:16:35;93883.97;;;21.22;66.57
11808;BME280;5961;42.640;23.380;2023-05-29T10:19:11;93882.56;;;21.10;66.71
11808;BME280;5961;42.640;23.380;2023-05-29T10:21:40;93886.25;;;21.27;66.78
11808;BME280;5961;42.640;23.380;2023-05-29T10:24:07;93873.94;;;21.22;67.67
11808;BME280;5961;42.640;23.380;2023-05-29T10:26:38;93878.09;;;21.30;68.62
11808;BME280;5961;42.640;23.380;2023-05-29T10:29:12;93874.50;;;21.41;68.02
11808;BME280;5961;42.640;23.380;2023-05-29T10:31:48;93875.25;;;21.45;67.25
11808;BME280;5961;42.640;23.380;2023-05-29T10:34:28;93870.94;;;21.47;67.43
11808;BME280;5961;42.640;23.380;2023-05-29T10:37:04;93871.72;;;21.48;67.95
11808;BME280;5961;42.640;23.380;2023-05-29T10:39:32;93879.03;;;21.51;66.97
11808;BME280;5961;42.640;23.380;2023-05-29T10:42:00;93876.03;;;21.42;69.31
11808;BME280;5961;42.640;23.380;2023-05-29T10:44:40;93772.56;;;20.70;70.94
11808;BME280;5961;42.640;23.380;2023-05-29T10:47:07;93856.19;;;21.21;71.41
11808;BME280;5961;42.640;23.380;2023-05-29T10:49:38;93876.19;;;21.27;72.65
11808;BME280;5961;42.640;23.380;2023-05-29T10:52:06;93863.25;;;21.12;70.67
11808;BME280;5961;42.640;23.380;2023-05-29T10:54:49;93867.78;;;21.18;70.33
11808;BME280;5961;42.640;23.380;2023-05-29T10:57:18;93861.69;;;21.14;71.00
11808;BME280;5961;42.640;23.380;2023-05-29T10:59:47;93845.50;;;21.07;71.57
11808;BME280;5961;42.640;23.380;2023-05-29T11:02:18;93860.50;;;21.15;71.81
11808;BME280;5961;42.640;23.380;2023-05-29T11:05:04;93858.03;;;21.28;73.29
11808;BME280;5961;42.640;23.380;2023-05-29T11:07:35;93865.72;;;21.33;74.81
11808;BME280;5961;42.640;23.380;2023-05-29T11:10:11;93853.22;;;21.43;73.88
11808;BME280;5961;42.640;23.380;2023-05-29T11:12:57;93848.88;;;21.52;78.70
11808;BME280;5961;42.640;23.380;2023-05-29T11:15:24;93851.50;;;21.59;73.07
11808;BME280;5961;42.640;23.380;2023-05-29T11:17:51;93859.16;;;21.64;70.48
11808;BME280;5961;42.640;23.380;2023-05-29T11:20:30;93858.75;;;21.66;71.08
11808;BME280;5961;42.640;23.380;2023-05-29T11:23:02;93852.53;;;21.69;71.40
11808;BME280;5961;42.640;23.380;2023-05-29T11:25:30;93851.00;;;21.68;72.00
11808;BME280;5961;42.640;23.380;2023-05-29T11:27:59;93838.75;;;21.60;75.94
11808;BME280;5961;42.640;23.380;2023-05-29T11:30:26;93839.28;;;21.48;74.77
11808;BME280;5961;42.640;23.380;2023-05-29T11:32:53;93837.13;;;21.66;73.12
11808;BME280;5961;42.640;23.380;2023-05-29T11:35:22;93839.44;;;21.64;73.09
11808;BME280;5961;42.640;23.380;2023-05-29T11:37:50;93846.34;;;21.68;71.99
11808;BME280;5961;42.640;23.380;2023-05-29T11:40:17;93839.28;;;21.78;71.19
11808;BME280;5961;42.640;23.380;2023-05-29T11:42:45;93832.28;;;21.80;71.93
11808;BME280;5961;42.640;23.380;2023-05-29T11:45:14;93832.22;;;21.84;74.82
11808;BME280;5961;42.640;23.380;2023-05-29T11:47:51;93836.81;;;21.87;72.18
11808;BME280;5961;42.640;23.380;2023-05-29T11:50:19;93813.13;;;21.68;71.98
11808;BME280;5961;42.640;23.380;2023-05-29T11:52:46;93828.19;;;21.69;73.95
11808;BME280;5961;42.640;23.380;2023-05-29T11:55:14;93841.88;;;21.55;74.07
11808;BME280;5961;42.640;23.380;2023-05-29T11:57:41;93844.56;;;21.55;73.58
11808;BME280;5961;42.640;23.380;2023-05-29T12:00:13;93849.41;;;21.40;76.33
11808;BME280;5961;42.640;23.380;2023-05-29T12:02:39;93857.53;;;21.37;77.70
11808;BME280;5961;42.640;23.380;2023-05-29T12:05:08;93851.22;;;21.16;78.74
11808;BME280;5961;42.640;23.380;2023-05-29T12:07:35;93853.75;;;20.93;80.00
11808;BME280;5961;42.640;23.380;2023-05-29T12:10:11;93845.56;;;20.63;79.92
11808;BME280;5961;42.640;23.380;2023-05-29T12:12:39;93847.66;;;20.45;81.60
11808;BME280;5961;42.640;23.380;2023-05-29T12:15:07;93850.47;;;20.31;80.99
11808;BME280;5961;42.640;23.380;2023-05-29T12:17:35;93852.50;;;20.12;80.26
11808;BME280;5961;42.640;23.380;2023-05-29T12:20:03;93855.34;;;19.91;78.47
11808;BME280;5961;42.640;23.380;2023-05-29T12:22:33;93849.66;;;19.75;80.33
11808;BME280;5961;42.640;23.380;2023-05-29T12:25:06;93849.69;;;19.68;79.05
11808;BME280;5961;42.640;23.380;2023-05-29T12:27:34;93842.03;;;19.63;80.26
11808;BME280;5961;42.640;23.380;2023-05-29T12:30:09;93847.41;;;19.66;80.79
11808;BME280;5961;42.640;23.380;2023-05-29T12:32:37;93845.06;;;19.68;82.88
11808;BME280;5961;42.640;23.380;2023-05-29T12:35:15;93842.72;;;19.70;83.76
11808;BME280;5961;42.640;23.380;2023-05-29T12:37:44;93846.59;;;19.69;83.34
11808;BME280;5961;42.640;23.380;2023-05-29T12:40:18;93859.31;;;19.69;83.34
11808;BME280;5961;42.640;23.380;2023-05-29T12:42:46;93857.38;;;19.73;83.09
11808;BME280;5961;42.640;23.380;2023-05-29T12:45:14;93855.81;;;19.79;84.67
11808;BME280;5961;42.640;23.380;2023-05-29T12:47:45;93856.94;;;19.85;86.87
11808;BME280;5961;42.640;23.380;2023-05-29T12:50:30;93850.38;;;19.83;82.26
11808;BME280;5961;42.640;23.380;2023-05-29T12:52:59;93855.03;;;19.75;80.28
11808;BME280;5961;42.640;23.380;2023-05-29T12:55:26;93855.81;;;19.76;83.51
11808;BME280;5961;42.640;23.380;2023-05-29T12:57:53;93853.53;;;19.70;82.75
11808;BME280;5961;42.640;23.380;2023-05-29T13:00:22;93843.50;;;19.71;83.46
11808;BME280;5961;42.640;23.380;2023-05-29T13:02:49;93849.66;;;19.75;84.12
11808;BME280;5961;42.640;23.380;2023-05-29T13:05:16;93848.09;;;19.74;83.54